Startpagina
METAR-TAF:

METAR-TAF

Vliegvelden :

Bradshaw Army Air Field

Bradshaw, Hawaï, Verenigde Staten

breedte: 19-47N, lengte: 155-33W, hoogte: 1887 m

Actueel weer

Dit bericht is 45 minuten geleden gemaakt, om 11:56 UTC
Wind 9 kt uit het zuidoosten
Temperatuur 12°C
Vochtigheid 40%
Druk 1029 hPa
Zicht: 16.1 km
Onbewolkt

METAR: PHSF 211156Z AUTO 13009KT 10SM CLR 12/M01 A3040 RMK AO2 SLP169 WND DATA ESTMD T01161007 10151 20101 PWINO $

Tijdstip: 02:41 (12:41 UTC)


TAF: ontbreekt

Waarnemingen en weersverwachtingen van meer dan 4000 vliegvelden (METAR en TAF).

De beschikbare stations zijn de gele en rode punten op de kaart.

Ga met uw muis naar het station om de naam te zien.

Klik dan om waarnemingen en weersverwachtingen te zien.

kaart wijzigen: klik op de groene knoppen met een zwart kruis om in te zoomen, op de groene knop met een streepje om uit te zoomen of op de groene pijlen voor aangrenzende kaarten.


METAR-TAF: